• Join FlightAware (Why Join?)
  • Login
  • US Flag 
11:28PM EDT


 

Airport Tracker/Info


-or-


 

Live Flight TrackerFlight Track Log ✈ CSN6817 ✈ 10-Sep-2013 ✈ ZWWW / URC - ZWTN / HTN

Flight Track Log - Related Links

Times and Time Zones

All times are in EDT time to prevent confusion due to time zone crossing. See the CSN6817 flight status page for this flight to view local times or setup timezone preferences in your user account.

Time Position Orientation Groundspeed Altitude Reporting Facility
EDT Latitude Longitude Course Direction KTS MPH feet Rate Location/Type
08:33PM 43.8070 87.3465 223° Southwest  Level Estimated
08:34PM 43.7067 87.2192 223° Southwest  Level Estimated
08:35PM 43.6063 87.0923 222° Southwest  Level Estimated
08:36PM 43.5058 86.9659 222° Southwest  Level Estimated
08:37PM 43.4051 86.8399 222° Southwest  Level Estimated
08:38PM 43.3043 86.7143 222° Southwest  Level Estimated
08:39PM 43.2034 86.5891 222° Southwest  Level Estimated
08:40PM 43.1023 86.4643 222° Southwest  Level Estimated
08:41PM 43.0010 86.3399 222° Southwest  Level Estimated
08:42PM 42.8997 86.2160 222° Southwest  Level Estimated
08:43PM 42.7982 86.0924 222° Southwest  Level Estimated
08:44PM 42.6966 85.9693 222° Southwest  Level Estimated
08:45PM 42.5948 85.8465 222° Southwest  Level Estimated
08:46PM 42.4930 85.7242 222° Southwest  Level Estimated
08:47PM 42.3909 85.6022 221° Southwest  Level Estimated
08:48PM 42.2888 85.4807 221° Southwest  Level Estimated
08:49PM 42.1865 85.3595 221° Southwest  Level Estimated
08:50PM 42.0841 85.2387 221° Southwest  Level Estimated
08:51PM 41.9816 85.1183 221° Southwest  Level Estimated
08:52PM 41.8790 84.9984 221° Southwest  Level Estimated
08:53PM 41.7762 84.8788 221° Southwest  Level Estimated
08:54PM 41.6733 84.7595 221° Southwest  Level Estimated
08:55PM 41.5703 84.6407 221° Southwest  Level Estimated
08:56PM 41.4671 84.5222 221° Southwest  Level Estimated
08:57PM 41.3639 84.4041 221° Southwest  Level Estimated
08:58PM 41.2605 84.2864 221° Southwest  Level Estimated
08:59PM 41.1570 84.1691 220° Southwest  Level Estimated
09:00PM 41.0534 84.0521 220° Southwest  Level Estimated
09:01PM 40.9496 83.9355 220° Southwest  Level Estimated
09:02PM 40.8458 83.8193 220° Southwest  Level Estimated
09:03PM 40.7418 83.7034 220° Southwest  Level Estimated
09:04PM 40.6377 83.5879 220° Southwest  Level Estimated
09:05PM 40.5335 83.4728 220° Southwest  Level Estimated
09:06PM 40.4292 83.3580 220° Southwest  Level Estimated
09:07PM 40.3248 83.2435 220° Southwest  Level Estimated
09:08PM 40.2202 83.1294 220° Southwest  Level Estimated
09:09PM 40.1156 83.0157 220° Southwest  Level Estimated
09:10PM 40.0108 82.9023 220° Southwest  Level Estimated
09:11PM 39.9059 82.7893 220° Southwest  Level Estimated
09:12PM 39.8010 82.6766 220° Southwest  Level Estimated
09:13PM 39.6959 82.5643 219° Southwest  Level Estimated
09:14PM 39.5907 82.4523 219° Southwest  Level Estimated
09:15PM 39.4854 82.3406 219° Southwest  Level Estimated
09:16PM 39.3800 82.2293 219° Southwest  Level Estimated
09:17PM 39.2744 82.1183 219° Southwest  Level Estimated
09:18PM 39.1688 82.0077 219° Southwest  Level Estimated
09:19PM 39.0631 81.8973 219° Southwest  Level Estimated
09:20PM 38.9573 81.7874 219° Southwest  Level Estimated
09:21PM 38.8513 81.6777 219° Southwest  Level Estimated
09:22PM 38.7453 81.5684 219° Southwest  Level Estimated
09:23PM 38.6391 81.4593 219° Southwest  Level Estimated
09:24PM 38.5329 81.3506 219° Southwest  Level Estimated
09:25PM 38.4266 81.2423 219° Southwest  Level Estimated
09:26PM 38.3201 81.1342 219° Southwest  Level Estimated
09:27PM 38.2136 81.0265 218° Southwest  Level Estimated
09:28PM 38.1069 80.9191 218° Southwest  Level Estimated
09:29PM 38.0002 80.8120 218° Southwest  Level Estimated
09:30PM 37.8934 80.7052 218° Southwest  Level Estimated
09:31PM 37.7864 80.5987 218° Southwest  Level Estimated
09:32PM 37.6794 80.4925 218° Southwest  Level Estimated
09:33PM 37.5723 80.3867 218° Southwest  Level Estimated
09:34PM 37.4651 80.2811 218° Southwest  Level Estimated
09:35PM 37.3578 80.1758 218° Southwest  Level Estimated
09:36PM 37.2504 80.0709 218° Southwest  Level Estimated
09:37PM 37.1429 79.9662 218° Southwest  Level Estimated
09:38PM 37.0385 79.8649 218° Southwest  Level Estimated
09:39PM 37.0385 79.8649 50° Northeast  Level Estimated
09:40PM 37.0385 79.8649 50° Northeast  Level Estimated
09:41PM 37.0385 79.8649 50° Northeast  Level Estimated
09:42PM 37.0385 79.8649 50° Northeast  Level Estimated
09:43PM 37.0385 79.8649 50° Northeast  Level Estimated
09:44PM 37.0385 79.8649 50° Northeast  Level Estimated
09:45PM 37.0385 79.8649 50° Northeast  Level Estimated
09:46PM 37.0385 79.8649 50° Northeast  Level Estimated
09:47PM 37.0385 79.8649 50° Northeast  Level Estimated
09:48PM 37.0385 79.8649 50° Northeast  Level Estimated
09:49PM 37.0385 79.8649 50° Northeast  Level Estimated